Time;durP1;ratioP1;P1;durP2;ratioP2;P2;SDS_P1;SDS_P2;PMS_P1;PMS_P2;Temp;Humidity;BMP_temperature;BMP_pressure;BME280_temperature;BME280_humidity;BME280_pressure;Samples;Min_cycle;Max_cycle;Signal;HPM_P1;HPM_P2
2022/11/08 00:01:30;;;;;;;11.73;6.18;;;;;;;9.01;79.23;99478.97;344790;28;1516;-79
2022/11/08 00:01:31;;;;;;;10.25;6.35;;;;;;;8.78;79.20;99475.31;343741;28;1678;-79
2022/11/08 00:01:43;;;;;;;13.43;6.13;;;;;;;8.79;79.31;99471.84;343468;28;1797;-80
2022/11/08 00:01:57;;;;;;;12.23;5.90;;;;;;;8.82;79.16;99470.91;343663;28;1192;-79
2022/11/08 00:02:09;;;;;;;8.95;5.90;;;;;;;8.84;79.27;99465.66;343589;28;1223;-79
2022/11/08 00:02:24;;;;;;;9.25;6.28;;;;;;;8.79;79.18;99473.56;343645;28;1263;-79
2022/11/08 00:02:45;;;;;;;9.02;6.28;;;;;;;8.75;79.22;99471.94;341280;28;1042;-79
2022/11/08 00:03:14;;;;;;;10.93;6.07;;;;;;;8.74;79.01;99471.09;338739;29;1777;-80
2022/11/08 00:03:28;;;;;;;11.88;6.10;;;;;;;8.75;78.78;99470.22;340929;29;987;-79
2022/11/08 00:03:40;;;;;;;11.33;6.13;;;;;;;8.76;79.29;99471.06;340762;28;2118;-81
2022/11/08 00:03:52;;;;;;;11.00;6.20;;;;;;;8.74;79.62;99473.69;340787;29;1599;-79
2022/11/08 00:04:07;;;;;;;10.60;6.20;;;;;;;8.72;79.71;99470.28;341288;29;1139;-79
2022/11/08 00:04:19;;;;;;;9.93;6.03;;;;;;;8.72;79.67;99472.88;341213;29;1397;-80
2022/11/08 00:04:33;;;;;;;9.35;6.00;;;;;;;8.74;79.46;99467.66;341121;29;1818;-80
2022/11/08 00:04:45;;;;;;;8.63;5.90;;;;;;;8.75;79.62;99477.13;340769;28;1774;-79
2022/11/08 00:04:57;;;;;;;10.73;5.97;;;;;;;8.72;79.97;99470.28;341764;28;1261;-79
2022/11/08 00:13:58;;;;;;;8.82;5.28;;;;;;;8.70;78.43;99464.31;342884;28;1542;-79
2022/11/08 00:14:10;;;;;;;8.82;5.05;;;;;;;8.70;78.43;99468.66;343805;28;1571;-79
2022/11/08 00:14:22;;;;;;;7.18;4.80;;;;;;;8.71;78.54;99466.03;344967;28;1180;-79
2022/11/08 00:14:34;;;;;;;9.13;4.65;;;;;;;8.73;78.41;99463.38;344963;28;1800;-79
2022/11/08 00:14:46;;;;;;;8.93;4.78;;;;;;;8.75;78.30;99461.56;344839;28;1432;-81
2022/11/08 00:14:58;;;;;;;7.30;4.50;;;;;;;8.76;78.36;99458.94;343595;28;1769;-78
2022/11/08 00:15:10;;;;;;;5.85;4.50;;;;;;;8.76;78.65;99458.94;343375;28;1894;-79
2022/11/08 00:15:22;;;;;;;6.47;4.43;;;;;;;8.75;78.41;99457.25;343659;28;1084;-79
2022/11/08 00:15:37;;;;;;;7.75;4.70;;;;;;;8.77;78.69;99465.84;343616;28;1082;-79
2022/11/08 00:15:49;;;;;;;7.93;4.68;;;;;;;8.76;78.69;99458.94;343595;28;1043;-79
2022/11/08 00:16:01;;;;;;;7.00;4.80;;;;;;;8.78;78.51;99462.34;343246;28;1748;-79
2022/11/08 00:16:13;;;;;;;7.72;4.90;;;;;;;8.79;78.44;99458.88;343704;28;1374;-79
2022/11/08 00:16:27;;;;;;;8.63;4.68;;;;;;;8.78;78.38;99466.69;342369;28;1287;-79
2022/11/08 00:16:39;;;;;;;9.90;4.80;;;;;;;8.73;78.25;99464.25;342436;28;1099;-79
2022/11/08 00:16:51;;;;;;;13.32;5.40;;;;;;;8.69;78.44;99467.81;342384;28;1043;-79
2022/11/08 00:17:03;;;;;;;12.43;5.75;;;;;;;8.68;78.80;99465.25;343575;28;1945;-79
2022/11/08 00:17:16;;;;;;;10.70;5.43;;;;;;;8.69;78.68;99466.94;342036;28;1035;-79
2022/11/08 00:17:30;;;;;;;10.07;5.55;;;;;;;8.67;79.06;99461.81;341857;28;1669;-79
2022/11/08 00:17:42;;;;;;;8.07;5.30;;;;;;;8.70;79.00;99458.28;342353;28;2054;-79
2022/11/08 00:17:55;;;;;;;7.68;4.93;;;;;;;8.72;78.87;99466.88;342627;28;776;-79
2022/11/08 00:18:07;;;;;;;7.50;4.85;;;;;;;8.72;78.81;99467.69;342391;28;1159;-80
2022/11/08 00:18:19;;;;;;;8.10;4.93;;;;;;;8.73;78.81;99466.81;342419;28;1088;-78
2022/11/08 00:18:31;;;;;;;7.85;4.97;;;;;;;8.74;78.75;99455.56;342358;28;1070;-79
2022/11/08 00:18:43;;;;;;;8.27;5.22;;;;;;;8.72;78.55;99462.53;343045;28;1211;-80
2022/11/08 00:18:55;;;;;;;9.13;5.72;;;;;;;8.72;78.37;99457.34;343745;28;1245;-79
2022/11/08 00:19:07;;;;;;;10.75;5.90;;;;;;;8.71;79.01;99463.44;343212;28;1684;-79
2022/11/08 00:19:19;;;;;;;10.40;5.70;;;;;;;8.70;79.01;99463.47;344420;28;1676;-79
2022/11/08 00:19:31;;;;;;;9.50;5.63;;;;;;;8.71;78.96;99457.38;346115;28;2176;-80
2022/11/08 00:19:43;;;;;;;9.43;5.43;;;;;;;8.71;78.51;99455.66;345923;28;1110;-79
2022/11/08 00:19:55;;;;;;;9.70;5.40;;;;;;;8.73;78.68;99455.59;345233;28;1049;-78
2022/11/08 00:20:08;;;;;;;9.80;5.28;;;;;;;8.71;78.49;99455.66;344867;28;1850;-79
2022/11/08 00:20:20;;;;;;;8.88;5.25;;;;;;;8.66;78.86;99457.50;343617;28;1088;-79
2022/11/08 00:20:32;;;;;;;7.88;5.30;;;;;;;8.66;79.12;99457.50;342330;28;1066;-79
2022/11/08 00:20:44;;;;;;;9.70;5.72;;;;;;;8.67;79.05;99454.03;341829;28;1617;-79
2022/11/08 00:21:01;;;;;;;10.55;5.80;;;;;;;8.68;78.85;99460.91;342274;28;1435;-79
2022/11/08 00:21:13;;;;;;;11.77;5.57;;;;;;;8.70;78.76;99459.13;341242;28;1181;-79
2022/11/08 00:21:24;;;;;;;12.48;5.40;;;;;;;8.70;78.80;99453.94;342149;28;1176;-79
2022/11/08 00:21:36;;;;;;;9.10;5.00;;;;;;;8.72;78.54;99457.34;341073;29;1068;-79
2022/11/08 00:21:51;;;;;;;7.90;4.90;;;;;;;8.73;78.75;99451.28;340856;29;1020;-79
2022/11/08 00:22:03;;;;;;;8.05;4.63;;;;;;;8.73;78.63;99451.28;342078;28;1209;-79
2022/11/08 00:22:16;;;;;;;9.50;4.60;;;;;;;8.73;78.79;99459.06;342350;28;1035;-79
2022/11/08 00:22:29;;;;;;;8.63;4.78;;;;;;;8.73;78.68;99455.59;342683;28;1930;-80
2022/11/08 00:22:41;;;;;;;7.30;5.00;;;;;;;8.71;78.57;99460.84;342152;28;1074;-79
2022/11/08 00:22:53;;;;;;;6.25;4.70;;;;;;;8.69;78.71;99448.78;342358;28;1043;-79
2022/11/08 00:23:06;;;;;;;6.45;4.63;;;;;;;8.67;78.71;99461.81;342806;28;1743;-80
2022/11/08 00:23:17;;;;;;;6.60;4.60;;;;;;;8.66;78.56;99452.34;344507;28;1104;-79
2022/11/08 00:23:29;;;;;;;6.65;4.80;;;;;;;8.66;78.44;99457.50;343434;28;1666;-79
2022/11/08 00:23:44;;;;;;;7.07;4.70;;;;;;;8.68;78.50;99455.72;342924;28;1669;-79
2022/11/08 00:23:56;;;;;;;7.53;4.82;;;;;;;8.68;78.28;99454.88;343519;28;1117;-79
2022/11/08 00:24:08;;;;;;;8.23;4.93;;;;;;;8.67;78.46;99453.16;343546;28;1236;-79
2022/11/08 00:24:20;;;;;;;8.65;5.18;;;;;;;8.68;78.79;99455.72;343469;28;1201;-79
2022/11/08 00:24:33;;;;;;;8.43;5.13;;;;;;;8.69;78.52;99447.06;344359;28;1869;-79
2022/11/08 00:24:46;;;;;;;8.35;4.72;;;;;;;8.71;78.50;99450.47;342429;28;1706;-79
2022/11/08 00:24:58;;;;;;;7.93;4.53;;;;;;;8.72;78.49;99452.16;342595;28;1072;-79
2022/11/08 00:25:10;;;;;;;7.70;4.82;;;;;;;8.71;78.48;99450.47;342496;28;1207;-80
2022/11/08 00:25:22;;;;;;;8.60;5.03;;;;;;;8.70;78.43;99447.91;340729;28;1212;-79
2022/11/08 00:25:33;;;;;;;8.07;5.00;;;;;;;8.70;78.27;99453.09;342431;28;1028;-79
2022/11/08 00:25:52;;;;;;;6.85;5.10;;;;;;;8.69;77.99;99460.03;342299;28;1146;-79
2022/11/08 00:26:04;;;;;;;9.13;5.30;;;;;;;8.69;78.02;99447.06;343277;28;1487;-79
2022/11/08 00:26:16;;;;;;;9.30;5.05;;;;;;;8.69;78.14;99452.25;343839;28;1747;-79
2022/11/08 00:26:28;;;;;;;7.80;4.65;;;;;;;8.71;77.89;99455.66;343485;28;1103;-79
2022/11/08 00:26:41;;;;;;;7.22;4.45;;;;;;;8.73;78.04;99458.19;343740;28;1114;-79
2022/11/08 00:26:53;;;;;;;7.72;4.60;;;;;;;8.73;78.03;99455.59;343647;28;1227;-79
2022/11/08 00:27:08;;;;;;;8.43;4.80;;;;;;;8.73;78.34;99453.88;343500;28;1235;-79
2022/11/08 00:27:22;;;;;;;8.55;5.00;;;;;;;8.73;77.83;99453.88;342965;28;1645;-79
2022/11/08 00:27:34;;;;;;;8.13;5.15;;;;;;;8.72;78.36;99452.16;344919;28;1315;-79
2022/11/08 00:27:46;;;;;;;8.00;5.10;;;;;;;8.71;78.19;99455.66;343801;28;1408;-81
2022/11/08 00:27:57;;;;;;;8.20;5.18;;;;;;;8.71;78.14;99445.28;343502;28;2211;-79
2022/11/08 00:28:09;;;;;;;8.13;4.90;;;;;;;8.73;78.31;99447.81;343719;28;1008;-79
2022/11/08 00:28:21;;;;;;;7.75;4.80;;;;;;;8.73;78.07;99453.88;343727;28;1158;-79
2022/11/08 00:28:33;;;;;;;7.95;4.97;;;;;;;8.70;78.64;99451.34;343348;28;1835;-79
2022/11/08 00:28:45;;;;;;;8.68;5.00;;;;;;;8.69;78.20;99451.38;343884;28;1269;-79
2022/11/08 00:28:57;;;;;;;11.07;5.13;;;;;;;8.66;78.21;99452.34;344766;28;1126;-79
2022/11/08 00:29:09;;;;;;;11.13;5.43;;;;;;;8.66;78.13;99447.16;343689;28;1223;-79
2022/11/08 00:29:21;;;;;;;8.40;5.13;;;;;;;8.68;78.01;99450.53;342511;28;1086;-78
2022/11/08 00:29:36;;;;;;;7.55;4.78;;;;;;;8.67;78.21;99454.03;342155;28;1226;-79
2022/11/08 00:29:49;;;;;;;6.30;4.47;;;;;;;8.69;78.19;99449.66;342154;28;1112;-79
2022/11/08 00:30:01;;;;;;;6.38;4.53;;;;;;;8.68;78.16;99442.78;342296;28;1349;-79
2022/11/08 00:30:13;;;;;;;6.07;4.43;;;;;;;8.70;78.18;99453.94;341314;29;738;-79
2022/11/08 00:30:25;;;;;;;6.18;4.60;;;;;;;8.71;78.19;99445.28;340820;29;1431;-79
2022/11/08 00:30:37;;;;;;;6.25;4.55;;;;;;;8.70;78.02;99446.16;340730;29;1646;-79
2022/11/08 00:30:48;;;;;;;5.97;4.43;;;;;;;8.70;78.18;99446.16;340961;29;1241;-79
2022/11/08 00:31:05;;;;;;;6.50;4.45;;;;;;;8.69;78.22;99447.06;340936;29;1067;-79
2022/11/08 00:31:17;;;;;;;6.72;4.50;;;;;;;8.70;78.25;99443.56;342128;28;1207;-79
2022/11/08 00:31:34;;;;;;;5.88;4.22;;;;;;;8.71;78.18;99447.00;341909;28;1898;-78
2022/11/08 00:32:41;;;;;;;5.68;3.70;;;;;;;8.65;78.28;99434.22;341636;28;1551;-79
2022/11/08 00:33:27;;;;;;;5.25;3.20;;;;;;;8.54;77.68;99443.16;343192;28;799;-79
2022/11/08 00:34:35;;;;;;;5.28;3.60;;;;;;;8.30;77.94;99434.28;343726;28;1154;-79
2022/11/08 00:34:55;;;;;;;5.15;3.75;;;;;;;8.20;78.31;99443.19;343600;28;1303;-79
2022/11/08 00:35:07;;;;;;;5.45;3.60;;;;;;;8.14;78.62;99449.34;344984;28;1084;-79
2022/11/08 00:35:19;;;;;;;5.85;3.35;;;;;;;8.08;78.36;99444.34;343458;28;1256;-79
2022/11/08 00:35:31;;;;;;;6.63;3.30;;;;;;;8.05;78.71;99444.44;345198;28;865;-79
2022/11/08 00:35:43;;;;;;;5.63;3.50;;;;;;;7.99;78.82;99445.44;343683;28;1973;-78
2022/11/08 00:35:57;;;;;;;5.15;3.67;;;;;;;7.95;79.11;99436.06;343590;28;1067;-79
2022/11/08 00:36:09;;;;;;;6.90;3.72;;;;;;;7.95;79.34;99446.41;342341;28;1002;-79
2022/11/08 00:36:21;;;;;;;8.88;3.88;;;;;;;7.92;79.30;99449.06;341972;28;1921;-79
2022/11/08 00:36:33;;;;;;;7.97;3.40;;;;;;;7.94;79.33;99447.28;342194;28;1035;-79
2022/11/08 00:36:45;;;;;;;6.20;3.30;;;;;;;7.93;79.55;99443.00;341142;28;2007;-79
2022/11/08 00:36:57;;;;;;;5.57;3.47;;;;;;;7.95;79.71;99449.00;342786;28;1097;-79
2022/11/08 00:37:09;;;;;;;5.85;3.70;;;;;;;7.95;79.60;99443.81;344261;28;1179;-78
2022/11/08 00:37:22;;;;;;;5.45;3.50;;;;;;;7.89;79.64;99449.16;343771;28;1104;-79
2022/11/08 00:37:34;;;;;;;6.28;4.03;;;;;;;7.91;79.80;99442.19;343647;28;1007;-79
2022/11/08 00:37:45;;;;;;;6.00;4.00;;;;;;;7.90;79.86;99442.22;343469;28;1111;-79
2022/11/08 00:37:57;;;;;;;6.05;3.80;;;;;;;7.90;79.82;99445.66;343500;28;1284;-80
2022/11/08 00:38:54;;;;;;;6.72;3.30;;;;;;;7.88;80.09;99447.44;341314;28;1612;-79
2022/11/08 00:39:06;;;;;;;3.90;3.40;;;;;;;7.87;80.20;99443.16;342562;28;1620;-79
2022/11/08 00:39:19;;;;;;;4.28;3.50;;;;;;;7.87;79.79;99440.56;343130;28;1250;-79
2022/11/08 00:39:31;;;;;;;6.25;4.25;;;;;;;7.82;79.99;99445.00;342516;28;1175;-79
2022/11/08 00:39:43;;;;;;;6.07;4.13;;;;;;;7.79;80.13;99447.69;342296;28;1099;-78
2022/11/08 00:39:55;;;;;;;7.68;3.83;;;;;;;7.80;80.00;99439.00;342054;28;1020;-79
2022/11/08 00:40:07;;;;;;;7.03;4.20;;;;;;;7.79;80.20;99448.53;342206;28;1175;-79
2022/11/08 00:40:19;;;;;;;4.80;4.13;;;;;;;7.74;80.08;99442.59;342586;28;1054;-79
2022/11/08 00:40:31;;;;;;;5.78;4.20;;;;;;;7.74;80.48;99439.16;343473;28;1023;-79
2022/11/08 00:41:13;;;;;;;7.75;5.15;;;;;;;7.72;80.10;99440.94;341345;29;1012;-80
2022/11/08 00:43:02;;;;;;;5.13;3.38;;;;;;;7.76;79.96;99433.06;338941;29;1013;-79
2022/11/08 00:44:49;;;;;;;6.90;5.45;;;;;;;7.76;80.31;99437.38;344349;28;1463;-79
2022/11/08 00:45:39;;;;;;;5.82;3.85;;;;;;;7.78;79.99;99440.78;337614;29;1222;-79
2022/11/08 00:47:06;;;;;;;4.40;3.00;;;;;;;7.87;79.77;99440.56;338478;29;1270;-79
2022/11/08 00:47:18;;;;;;;6.28;3.35;;;;;;;7.86;79.46;99436.28;340050;28;2009;-79
2022/11/08 00:47:30;;;;;;;4.90;3.15;;;;;;;7.88;79.83;99441.41;340649;28;1418;-79
2022/11/08 00:47:41;;;;;;;6.00;3.10;;;;;;;7.87;79.40;99443.16;339721;29;1017;-79
2022/11/08 00:47:53;;;;;;;5.38;3.30;;;;;;;7.85;79.60;99442.34;340344;28;1045;-79
2022/11/08 00:48:05;;;;;;;5.45;3.30;;;;;;;7.84;79.58;99444.97;342553;28;1075;-79
2022/11/08 00:48:17;;;;;;;5.38;3.30;;;;;;;7.84;79.65;99440.63;343533;28;1104;-79
2022/11/08 00:48:30;;;;;;;5.47;3.20;;;;;;;7.84;79.61;99443.22;341630;28;1695;-79
2022/11/08 00:48:42;;;;;;;5.43;3.38;;;;;;;7.85;79.19;99439.75;341279;29;1011;-79
2022/11/08 00:48:53;;;;;;;6.78;3.65;;;;;;;7.85;79.47;99441.47;341071;29;1272;-80
2022/11/08 00:49:06;;;;;;;6.82;3.80;;;;;;;7.85;79.53;99442.34;341027;29;1158;-79
2022/11/08 00:49:18;;;;;;;4.70;3.33;;;;;;;7.85;79.13;99442.34;341581;28;1559;-79
2022/11/08 00:49:30;;;;;;;4.97;3.25;;;;;;;7.83;79.21;99444.13;343465;28;1218;-79
2022/11/08 00:49:42;;;;;;;5.28;3.25;;;;;;;7.82;78.94;99436.41;343698;28;1208;-79
2022/11/08 00:49:54;;;;;;;5.75;3.30;;;;;;;7.79;79.34;99447.69;345365;28;724;-79
2022/11/08 00:50:06;;;;;;;5.50;3.25;;;;;;;7.78;79.25;99440.78;342597;28;1781;-79
2022/11/08 00:50:18;;;;;;;5.20;3.10;;;;;;;7.70;79.41;99442.72;340798;29;1630;-79
2022/11/08 00:50:30;;;;;;;6.40;3.17;;;;;;;7.64;79.33;99438.53;340943;29;1866;-78
2022/11/08 00:50:42;;;;;;;6.00;3.00;;;;;;;7.62;79.69;99444.63;340507;28;1744;-79
2022/11/08 00:50:54;;;;;;;5.72;2.92;;;;;;;7.62;79.65;99444.63;342361;28;1039;-79
2022/11/08 00:51:08;;;;;;;4.13;2.70;;;;;;;7.54;80.00;99443.06;341381;29;734;-79
2022/11/08 00:51:20;;;;;;;4.25;2.85;;;;;;;7.55;79.88;99444.78;340519;29;1196;-80
2022/11/08 00:51:32;;;;;;;4.72;3.00;;;;;;;7.55;79.48;99439.63;340422;29;1104;-79
2022/11/08 00:52:26;;;;;;;6.13;2.92;;;;;;;7.53;79.64;99440.53;341272;29;1035;-81
2022/11/08 00:54:16;;;;;;;5.07;3.00;;;;;;;7.54;80.25;99437.91;339255;28;1733;-79
2022/11/08 00:55:20;;;;;;;3.97;2.90;;;;;;;7.50;80.11;99441.44;340803;29;1335;-79
2022/11/08 00:55:34;;;;;;;4.82;2.92;;;;;;;7.47;80.46;99436.34;343851;28;2931;-79
2022/11/08 00:55:46;;;;;;;5.10;3.00;;;;;;;7.44;80.53;99441.59;344779;28;1168;-79
2022/11/08 00:56:03;;;;;;;5.18;2.95;;;;;;;7.38;80.25;99433.97;345061;28;1036;-79
2022/11/08 00:56:15;;;;;;;5.22;2.83;;;;;;;7.35;80.83;99442.66;343429;28;1168;-79
2022/11/08 00:56:27;;;;;;;4.22;2.72;;;;;;;7.35;81.17;99436.66;343442;28;1568;-80
2022/11/08 00:56:40;;;;;;;3.75;2.63;;;;;;;7.38;80.80;99439.16;344014;28;1910;-79
2022/11/08 00:56:52;;;;;;;4.72;2.60;;;;;;;7.42;80.92;99437.34;344005;28;1160;-78
2022/11/08 00:57:04;;;;;;;4.97;2.72;;;;;;;7.44;80.95;99436.41;343921;28;1035;-79
2022/11/08 00:57:16;;;;;;;5.38;3.05;;;;;;;7.45;80.16;99443.31;344049;28;1238;-82
2022/11/08 00:57:28;;;;;;;4.95;3.03;;;;;;;7.46;80.40;99439.81;343743;28;1148;-79
2022/11/08 00:57:59;;;;;;;5.47;2.70;;;;;;;7.48;80.42;99438.03;343764;28;1835;-79
2022/11/08 00:58:11;;;;;;;4.80;2.67;;;;;;;7.46;80.38;99439.81;343997;28;1889;-79
2022/11/08 00:58:23;;;;;;;3.88;2.75;;;;;;;7.46;80.08;99437.22;343752;28;1282;-79
2022/11/08 00:58:40;;;;;;;4.50;2.78;;;;;;;7.50;80.09;99438.84;341210;29;1201;-79
2022/11/08 00:58:52;;;;;;;4.55;2.70;;;;;;;7.52;80.36;99429.31;342419;28;1534;-80
2022/11/08 00:59:04;;;;;;;4.60;2.85;;;;;;;7.49;79.96;99434.59;342472;28;1032;-79
2022/11/08 00:59:18;;;;;;;3.97;2.78;;;;;;;7.51;80.04;99432.81;342294;28;1214;-79
2022/11/08 00:59:30;;;;;;;5.30;2.70;;;;;;;7.51;80.53;99435.41;342549;28;1038;-79
2022/11/08 00:59:41;;;;;;;5.43;2.80;;;;;;;7.53;80.11;99431.03;341176;29;1075;-79
2022/11/08 00:59:53;;;;;;;4.40;2.97;;;;;;;7.53;80.13;99425.88;339811;29;1057;-79
2022/11/08 01:00:06;;;;;;;4.85;2.95;;;;;;;7.56;80.38;99428.38;339965;29;1929;-80
2022/11/08 01:00:18;;;;;;;6.00;2.83;;;;;;;7.52;79.96;99433.66;339714;29;1755;-79
2022/11/08 01:00:30;;;;;;;7.70;3.03;;;;;;;7.50;80.16;99430.25;340828;28;1067;-79
2022/11/08 01:00:42;;;;;;;6.97;3.08;;;;;;;7.47;80.54;99431.19;342178;28;2200;-79
2022/11/08 01:00:54;;;;;;;5.10;2.80;;;;;;;7.49;79.88;99434.59;341105;29;1051;-79
2022/11/08 01:01:08;;;;;;;4.25;2.70;;;;;;;7.50;80.33;99436.28;341100;29;1228;-80
2022/11/08 01:01:21;;;;;;;4.20;2.60;;;;;;;7.48;80.16;99427.69;341265;29;1027;-79
2022/11/08 01:01:32;;;;;;;3.88;2.50;;;;;;;7.51;79.96;99435.41;340172;29;1708;-80
2022/11/08 01:01:46;;;;;;;3.35;2.60;;;;;;;7.51;80.11;99430.22;341354;29;1049;-80
2022/11/08 01:01:58;;;;;;;4.20;2.70;;;;;;;7.52;80.23;99434.50;340106;29;1115;-79
2022/11/08 01:02:10;;;;;;;4.35;2.65;;;;;;;7.53;80.49;99431.03;339906;29;1302;-79
2022/11/08 01:02:22;;;;;;;3.47;2.42;;;;;;;7.51;80.31;99430.22;340724;28;1467;-80
2022/11/08 01:02:34;;;;;;;4.63;2.50;;;;;;;7.48;80.34;99432.88;340450;29;1505;-79
2022/11/08 01:02:46;;;;;;;5.00;2.72;;;;;;;7.47;80.23;99435.50;341812;28;1208;-79
2022/11/08 01:03:29;;;;;;;3.80;2.45;;;;;;;7.42;80.86;99430.44;339776;29;1779;-80
2022/11/08 01:03:41;;;;;;;4.47;2.67;;;;;;;7.40;80.68;99421.84;342390;28;1074;-79
2022/11/08 01:04:33;;;;;;;4.53;2.85;;;;;;;7.46;81.01;99426.88;341773;28;1316;-80
2022/11/08 01:05:19;;;;;;;9.02;3.00;;;;;;;7.46;80.43;99434.66;342999;28;1109;-80
2022/11/08 01:05:41;;;;;;;4.63;2.63;;;;;;;7.38;80.43;99436.56;342906;28;1443;-80
2022/11/08 01:06:19;;;;;;;4.10;2.60;;;;;;;7.33;80.08;99425.50;341157;29;996;-79
2022/11/08 01:07:09;;;;;;;3.80;2.78;;;;;;;7.34;80.57;99429.75;339113;29;1305;-79
2022/11/08 01:07:48;;;;;;;3.95;2.63;;;;;;;7.36;81.01;99428.88;339081;28;2067;-79
2022/11/08 01:08:00;;;;;;;3.85;2.50;;;;;;;7.41;80.50;99421.00;341863;28;1156;-80
2022/11/08 01:08:13;;;;;;;3.78;2.38;;;;;;;7.43;80.49;99423.53;340783;28;2085;-80
2022/11/08 01:08:25;;;;;;;3.90;2.33;;;;;;;7.45;80.40;99424.34;342201;28;1283;-79
2022/11/08 01:08:38;;;;;;;3.60;2.50;;;;;;;7.43;80.54;99419.22;341092;28;1581;-79
2022/11/08 01:08:51;;;;;;;3.45;2.60;;;;;;;7.46;80.03;99423.47;341895;28;1831;-79
2022/11/08 01:09:03;;;;;;;4.35;2.67;;;;;;;7.49;80.02;99428.56;341957;28;1217;-79
2022/11/08 01:09:15;;;;;;;4.90;2.50;;;;;;;7.50;80.15;99423.34;340832;28;1959;-79
2022/11/08 01:09:27;;;;;;;5.03;2.67;;;;;;;7.52;79.76;99423.31;341937;28;1080;-79
2022/11/08 01:09:39;;;;;;;3.55;2.67;;;;;;;7.54;80.02;99422.38;342217;28;1855;-79
2022/11/08 01:09:51;;;;;;;3.83;2.80;;;;;;;7.55;79.91;99423.25;341616;28;1197;-79
2022/11/08 01:10:04;;;;;;;3.47;2.63;;;;;;;7.53;79.73;99430.19;342109;28;1095;-80
2022/11/08 01:10:16;;;;;;;3.33;2.65;;;;;;;7.47;79.80;99426.00;340970;28;2013;-79
2022/11/08 01:10:28;;;;;;;3.90;2.60;;;;;;;7.46;80.06;99424.31;341913;28;1602;-79
2022/11/08 01:10:46;;;;;;;4.47;2.60;;;;;;;7.43;80.08;99428.72;343259;28;1076;-79
2022/11/08 01:11:02;;;;;;;6.43;2.80;;;;;;;7.44;79.91;99423.47;343283;28;1238;-79
2022/11/08 01:11:18;;;;;;;5.95;2.60;;;;;;;7.44;80.01;99420.06;342334;28;1048;-80
2022/11/08 01:11:31;;;;;;;3.90;2.45;;;;;;;7.41;80.06;99421.00;341514;28;1679;-79
2022/11/08 01:11:45;;;;;;;3.40;2.45;;;;;;;7.43;80.29;99424.38;339500;28;4150;-80
2022/11/08 01:11:57;;;;;;;3.17;2.40;;;;;;;7.44;80.13;99420.91;343076;28;3006;-80
2022/11/08 01:12:09;;;;;;;3.83;2.53;;;;;;;7.46;79.90;99418.28;343524;28;1076;-79
2022/11/08 01:12:21;;;;;;;4.80;2.63;;;;;;;7.44;80.35;99420.06;343317;28;2649;-79
2022/11/08 01:12:33;;;;;;;6.18;2.70;;;;;;;7.44;80.06;99415.72;341238;28;1632;-79
2022/11/08 01:12:45;;;;;;;5.70;2.70;;;;;;;7.46;80.07;99419.13;339500;29;1057;-80
2022/11/08 01:12:57;;;;;;;6.82;2.72;;;;;;;7.47;80.08;99415.66;339732;28;1541;-80
2022/11/08 01:13:09;;;;;;;5.13;2.83;;;;;;;7.47;80.03;99420.84;340621;28;1699;-80
2022/11/08 01:13:21;;;;;;;4.15;2.70;;;;;;;7.48;80.03;99417.34;341222;28;1179;-79
2022/11/08 01:13:34;;;;;;;4.95;2.78;;;;;;;7.47;79.92;99415.66;340778;28;1445;-79
2022/11/08 01:13:47;;;;;;;4.60;2.63;;;;;;;7.49;80.39;99419.06;341106;28;1730;-79
2022/11/08 01:14:01;;;;;;;3.05;2.30;;;;;;;7.51;80.01;99416.44;342160;28;1087;-79
2022/11/08 01:14:14;;;;;;;2.97;2.42;;;;;;;7.47;80.06;99415.66;341527;28;1797;-80
2022/11/08 01:14:26;;;;;;;3.03;2.55;;;;;;;7.47;80.14;99414.84;341211;28;1232;-79
2022/11/08 01:14:38;;;;;;;4.40;2.80;;;;;;;7.45;80.25;99412.28;341002;28;1589;-78
2022/11/08 01:14:49;;;;;;;4.65;2.72;;;;;;;7.38;80.30;99410.69;340862;28;1896;-79
2022/11/08 01:15:01;;;;;;;5.32;2.90;;;;;;;7.39;80.09;99418.44;341074;29;1270;-79
2022/11/08 01:15:13;;;;;;;3.95;2.65;;;;;;;7.42;80.21;99416.66;340793;28;1560;-79
2022/11/08 01:15:25;;;;;;;3.38;2.30;;;;;;;7.43;79.81;99418.38;341014;28;1301;-79
2022/11/08 01:15:40;;;;;;;3.42;2.40;;;;;;;7.40;80.46;99414.09;340988;28;1047;-79
2022/11/08 01:15:52;;;;;;;5.13;2.55;;;;;;;7.43;80.22;99416.63;340952;28;1878;-79
2022/11/08 01:16:06;;;;;;;6.00;2.67;;;;;;;7.44;80.60;99420.06;340326;28;1584;-79
2022/11/08 01:16:21;;;;;;;5.13;2.60;;;;;;;7.42;80.51;99417.50;342862;28;1243;-79
2022/11/08 01:16:33;;;;;;;4.95;2.60;;;;;;;7.46;80.07;99413.13;341472;28;1630;-79
2022/11/08 01:16:45;;;;;;;5.10;2.60;;;;;;;7.48;80.45;99422.53;341386;28;1611;-81
2022/11/08 01:16:57;;;;;;;5.07;2.70;;;;;;;7.52;80.55;99413.81;341267;28;1706;-80
2022/11/08 01:17:09;;;;;;;5.18;2.67;;;;;;;7.55;80.02;99412.91;341733;28;1533;-79
2022/11/08 01:17:21;;;;;;;5.55;2.53;;;;;;;7.57;80.15;99411.13;341802;28;1819;-79
2022/11/08 01:17:33;;;;;;;4.47;2.50;;;;;;;7.55;79.84;99418.91;340573;29;1356;-79
2022/11/08 01:17:45;;;;;;;4.55;2.60;;;;;;;7.55;80.23;99418.91;340747;28;1502;-80
2022/11/08 01:17:57;;;;;;;3.58;2.65;;;;;;;7.50;80.32;99415.59;340748;29;1257;-79
2022/11/08 01:18:10;;;;;;;4.57;2.80;;;;;;;7.48;80.54;99412.19;340542;29;1989;-79
2022/11/08 01:18:22;;;;;;;4.55;2.75;;;;;;;7.43;80.08;99418.38;341562;28;1204;-79
2022/11/08 01:18:34;;;;;;;4.53;2.67;;;;;;;7.44;80.38;99418.31;341015;28;1620;-79
2022/11/08 01:18:47;;;;;;;4.57;2.70;;;;;;;7.43;80.53;99413.19;341321;28;1817;-79
2022/11/08 01:19:00;;;;;;;5.85;2.65;;;;;;;7.45;80.76;99412.28;341973;28;1043;-79
2022/11/08 01:19:11;;;;;;;5.90;2.67;;;;;;;7.46;80.47;99416.53;340941;28;1877;-81
2022/11/08 01:19:23;;;;;;;4.47;2.55;;;;;;;7.50;80.27;99413.00;341388;28;1196;-80
2022/11/08 01:19:35;;;;;;;3.03;2.42;;;;;;;7.52;80.09;99412.97;340592;28;1585;-80
2022/11/08 01:19:47;;;;;;;2.97;2.30;;;;;;;7.54;80.32;99416.38;340625;28;1508;-79
2022/11/08 01:19:59;;;;;;;4.35;2.60;;;;;;;7.56;80.15;99415.44;340745;28;1067;-79
2022/11/08 01:20:11;;;;;;;4.97;2.72;;;;;;;7.57;79.84;99411.13;340595;28;1485;-80
2022/11/08 01:20:23;;;;;;;4.82;2.60;;;;;;;7.54;79.84;99414.63;341864;28;1200;-79
2022/11/08 01:20:46;;;;;;;5.13;2.60;;;;;;;7.50;79.91;99415.59;341381;28;1983;-80
2022/11/08 01:20:58;;;;;;;4.90;2.88;;;;;;;7.48;79.74;99412.19;340639;29;1119;-79
2022/11/08 01:21:12;;;;;;;6.43;2.90;;;;;;;7.47;79.58;99415.66;341919;28;1282;-79
2022/11/08 01:21:26;;;;;;;5.60;2.70;;;;;;;7.44;79.74;99415.72;340529;29;1320;-79
2022/11/08 01:21:37;;;;;;;5.10;2.53;;;;;;;7.44;79.59;99415.72;340308;29;1842;-80
2022/11/08 01:21:49;;;;;;;5.07;2.50;;;;;;;7.39;79.79;99412.41;341080;29;1762;-80
2022/11/08 01:22:01;;;;;;;4.43;2.50;;;;;;;7.42;79.74;99409.75;341071;29;1076;-79
2022/11/08 01:22:13;;;;;;;4.45;2.60;;;;;;;7.44;80.04;99413.13;340536;28;1635;-79
2022/11/08 01:22:25;;;;;;;4.05;2.75;;;;;;;7.45;80.42;99411.44;341042;29;1254;-79
2022/11/08 01:22:37;;;;;;;4.55;2.75;;;;;;;7.45;80.04;99407.09;340596;28;1594;-79
2022/11/08 01:22:49;;;;;;;5.47;2.70;;;;;;;7.44;80.57;99413.13;341477;28;1891;-79
2022/11/08 01:23:01;;;;;;;5.45;2.78;;;;;;;7.44;80.47;99418.31;341013;29;2122;-79
2022/11/08 01:23:13;;;;;;;4.70;2.80;;;;;;;7.44;80.72;99415.72;340423;28;1576;-80
2022/11/08 01:23:25;;;;;;;4.40;2.63;;;;;;;7.42;80.84;99417.50;341611;28;1548;-79
2022/11/08 01:23:37;;;;;;;4.38;2.50;;;;;;;7.40;80.86;99408.94;342262;28;1146;-79
2022/11/08 01:23:49;;;;;;;4.75;2.50;;;;;;;7.42;81.03;99417.50;342192;28;1076;-79
2022/11/08 01:24:01;;;;;;;4.57;2.67;;;;;;;7.43;80.63;99416.63;340971;29;1255;-79
2022/11/08 01:24:13;;;;;;;4.82;2.80;;;;;;;7.46;80.81;99420.88;341871;28;1610;-80
2022/11/08 01:24:25;;;;;;;4.80;2.60;;;;;;;7.46;80.87;99415.69;340892;29;1389;-80
2022/11/08 01:24:37;;;;;;;4.80;2.45;;;;;;;7.45;80.65;99417.44;340702;28;1601;-79
2022/11/08 01:24:48;;;;;;;4.95;2.65;;;;;;;7.45;80.51;99417.44;342036;28;1699;-79
2022/11/08 01:25:00;;;;;;;4.47;2.60;;;;;;;7.47;80.44;99418.25;342144;28;1080;-79
2022/11/08 01:25:12;;;;;;;6.60;2.55;;;;;;;7.51;80.46;99411.28;340181;29;1120;-79
2022/11/08 01:25:24;;;;;;;6.78;2.53;;;;;;;7.53;80.59;99419.84;339418;29;1331;-79
2022/11/08 01:25:42;;;;;;;4.97;2.75;;;;;;;7.51;80.15;99419.88;339495;29;1614;-79
2022/11/08 01:25:54;;;;;;;4.18;2.95;;;;;;;7.51;80.07;99419.88;339327;29;2195;-80
2022/11/08 01:26:09;;;;;;;5.32;2.72;;;;;;;7.50;80.10;99420.75;338278;29;1052;-80
2022/11/08 01:26:24;;;;;;;5.13;2.53;;;;;;;7.46;80.17;99418.28;340044;28;1054;-79
2022/11/08 01:26:36;;;;;;;4.30;2.47;;;;;;;7.46;79.89;99419.13;339905;28;1616;-79
2022/11/08 01:26:49;;;;;;;5.50;2.60;;;;;;;7.46;80.30;99419.13;341183;28;1764;-80
2022/11/08 01:27:01;;;;;;;4.63;2.58;;;;;;;7.48;80.20;99417.34;340065;28;1545;-79
2022/11/08 01:27:13;;;;;;;4.22;2.50;;;;;;;7.47;79.95;99413.09;338914;28;1798;-80